createdAt,value
2022-07-27T00:00:55.981Z,53.06
2022-07-27T00:03:23.528Z,53.92
2022-07-27T00:05:50.969Z,55.12
2022-07-27T00:08:20.580Z,54.40
2022-07-27T00:10:48.251Z,53.36
2022-07-27T00:13:15.647Z,54.86
2022-07-27T00:15:42.677Z,54.41
2022-07-27T00:18:09.693Z,53.32
2022-07-27T00:20:37.551Z,52.88
2022-07-27T00:23:04.443Z,53.16
2022-07-27T00:25:31.533Z,52.89
2022-07-27T00:27:58.521Z,53.82
2022-07-27T00:30:26.068Z,54.45
2022-07-27T00:32:53.313Z,53.05
2022-07-27T00:35:20.311Z,53.81
2022-07-27T00:37:47.262Z,52.77
2022-07-27T00:40:14.322Z,52.00
2022-07-27T00:45:45.385Z,51.04
2022-07-27T00:48:12.467Z,51.44
2022-07-27T00:50:42.066Z,50.27
2022-07-27T00:53:10.141Z,50.02
2022-07-27T00:55:39.386Z,50.24
2022-07-27T00:58:08.802Z,50.24
2022-07-27T01:00:38.055Z,50.05
2022-07-27T01:03:09.594Z,50.07
2022-07-27T01:05:42.405Z,50.15
2022-07-27T01:08:12.826Z,51.24
2022-07-27T01:10:40.942Z,51.79
2022-07-27T01:13:12.488Z,51.35
2022-07-27T01:15:41.315Z,51.36
2022-07-27T01:18:27.218Z,51.52
2022-07-27T01:20:55.455Z,52.01
2022-07-27T01:23:26.097Z,51.85
2022-07-27T01:25:53.649Z,51.89
2022-07-27T01:28:21.283Z,52.12
2022-07-27T01:30:48.233Z,51.66
2022-07-27T01:33:15.131Z,52.12
2022-07-27T01:35:42.039Z,52.17
2022-07-27T01:38:11.588Z,51.49
2022-07-27T01:40:39.915Z,51.26
2022-07-27T01:43:07.236Z,51.21
2022-07-27T01:45:34.353Z,51.44
2022-07-27T01:48:01.732Z,51.00
2022-07-27T01:50:28.892Z,50.08
2022-07-27T01:52:55.768Z,51.05
2022-07-27T01:55:22.761Z,51.68
2022-07-27T01:57:49.675Z,51.69
2022-07-27T02:00:16.792Z,51.62
2022-07-27T02:02:43.665Z,52.12
2022-07-27T02:05:14.260Z,51.94
2022-07-27T02:07:41.717Z,51.67
2022-07-27T02:10:10.585Z,52.13
2022-07-27T02:12:38.273Z,51.74
2022-07-27T02:15:14.893Z,51.47
2022-07-27T02:17:46.003Z,52.44
2022-07-27T02:20:15.413Z,52.13
2022-07-27T02:22:43.057Z,52.54
2022-07-27T02:25:11.789Z,52.75
2022-07-27T02:27:40.379Z,52.85
2022-07-27T02:30:08.930Z,52.71
2022-07-27T02:32:35.868Z,52.28
2022-07-27T02:35:03.169Z,52.35
2022-07-27T02:37:47.272Z,52.58
2022-07-27T02:40:17.458Z,53.20
2022-07-27T02:42:45.807Z,53.08
2022-07-27T02:45:13.018Z,52.74
2022-07-27T02:47:40.295Z,52.62
2022-07-27T02:50:08.485Z,52.32
2022-07-27T02:52:35.686Z,52.54
2022-07-27T03:12:46.671Z,55.58
2022-07-27T03:15:13.639Z,54.83
2022-07-27T03:17:40.864Z,54.54
2022-07-27T03:20:09.442Z,54.29
2022-07-27T03:22:37.861Z,53.12
2022-07-27T03:25:05.282Z,53.11
2022-07-27T03:27:32.132Z,52.82
2022-07-27T03:29:59.002Z,52.59
2022-07-27T03:32:25.921Z,52.49
2022-07-27T03:34:53.202Z,52.29
2022-07-27T03:37:20.224Z,51.94
2022-07-27T03:39:47.193Z,52.01
2022-07-27T03:42:14.495Z,51.18
2022-07-27T03:44:41.439Z,50.35
2022-07-27T03:47:08.398Z,50.75
2022-07-27T03:49:35.456Z,51.64
2022-07-27T03:52:02.394Z,50.86
2022-07-27T03:54:29.297Z,50.31
2022-07-27T03:56:56.245Z,49.61
2022-07-27T03:59:23.193Z,48.37
2022-07-27T04:01:50.239Z,46.53
2022-07-27T04:04:17.184Z,47.03
2022-07-27T04:06:44.029Z,45.97
2022-07-27T04:09:11.362Z,44.80
2022-07-27T04:11:43.773Z,42.74
2022-07-27T04:14:19.273Z,42.06
2022-07-27T04:16:47.176Z,41.52
2022-07-27T04:19:14.350Z,41.89
2022-07-27T04:21:41.364Z,41.88
2022-07-27T04:24:08.559Z,41.11
2022-07-27T04:26:35.487Z,39.79
2022-07-27T04:29:02.399Z,40.03
2022-07-27T04:31:29.431Z,39.05
2022-07-27T04:33:56.350Z,39.47
2022-07-27T04:36:23.423Z,38.24
2022-07-27T04:38:50.284Z,39.24
2022-07-27T04:41:17.618Z,37.65
2022-07-27T04:43:44.523Z,35.46
2022-07-27T04:46:15.329Z,35.81
2022-07-27T04:48:49.517Z,33.41
2022-07-27T04:51:18.157Z,32.45
2022-07-27T04:53:54.103Z,32.09
2022-07-27T04:56:26.700Z,30.65
2022-07-27T04:58:54.803Z,29.91
2022-07-27T05:01:23.177Z,30.45
2022-07-27T05:03:50.347Z,29.72
2022-07-27T05:06:17.489Z,30.61
2022-07-27T05:08:44.613Z,29.81
2022-07-27T05:11:11.827Z,32.14
2022-07-27T05:13:40.631Z,35.73
2022-07-27T05:16:11.826Z,37.11
2022-07-27T05:18:39.261Z,37.07
2022-07-27T05:21:07.819Z,34.83
2022-07-27T05:23:34.871Z,35.75
2022-07-27T05:26:02.110Z,36.55
2022-07-27T05:28:29.184Z,36.97
2022-07-27T05:30:56.747Z,36.80
2022-07-27T05:33:23.626Z,33.09
2022-07-27T05:35:50.971Z,34.76
2022-07-27T05:38:17.915Z,33.69
2022-07-27T05:40:46.309Z,34.17
2022-07-27T05:43:13.985Z,35.09
2022-07-27T05:45:41.109Z,35.25
2022-07-27T05:48:08.830Z,33.56
2022-07-27T05:50:36.037Z,35.00
2022-07-27T05:53:03.760Z,33.03
2022-07-27T05:55:30.653Z,33.31
2022-07-27T05:57:57.590Z,31.04
2022-07-27T06:00:24.681Z,29.65
2022-07-27T06:02:51.876Z,30.75
2022-07-27T06:05:18.870Z,31.05
2022-07-27T06:08:02.974Z,30.64
2022-07-27T06:10:32.667Z,31.39
2022-07-27T06:13:00.610Z,31.81
2022-07-27T06:15:27.721Z,31.10
2022-07-27T06:17:55.123Z,31.38
2022-07-27T06:20:23.183Z,30.53
2022-07-27T06:23:00.420Z,31.27
2022-07-27T06:25:34.562Z,30.86
2022-07-27T06:28:03.727Z,28.74
2022-07-27T06:30:30.791Z,29.21
2022-07-27T06:32:58.724Z,28.71
2022-07-27T06:35:26.817Z,28.59
2022-07-27T06:37:54.202Z,29.23
2022-07-27T06:40:21.529Z,29.40
2022-07-27T06:42:48.668Z,29.26
2022-07-27T06:45:16.560Z,29.34
2022-07-27T06:47:49.406Z,27.10
2022-07-27T06:50:18.452Z,28.08
2022-07-27T06:52:45.471Z,27.36
2022-07-27T06:55:12.965Z,28.40
2022-07-27T06:57:40.221Z,28.80
2022-07-27T07:00:08.108Z,28.72
2022-07-27T07:02:35.031Z,28.71
2022-07-27T07:05:01.909Z,28.43
2022-07-27T07:07:28.931Z,28.45
2022-07-27T07:09:55.777Z,31.48
2022-07-27T07:12:22.782Z,29.02
2022-07-27T07:14:49.728Z,28.93
2022-07-27T07:17:16.740Z,27.93
2022-07-27T07:19:46.680Z,28.10
2022-07-27T07:22:13.631Z,27.13
2022-07-27T07:24:40.806Z,27.52
2022-07-27T07:27:07.756Z,28.90
2022-07-27T07:29:34.691Z,32.32
2022-07-27T07:32:01.574Z,33.68
2022-07-27T07:34:29.658Z,34.46
2022-07-27T07:36:56.644Z,32.84
2022-07-27T07:39:27.816Z,35.37
2022-07-27T07:41:58.044Z,36.01
2022-07-27T07:44:25.074Z,37.27
2022-07-27T07:46:52.244Z,37.21
2022-07-27T07:49:37.746Z,36.88
2022-07-27T07:52:06.275Z,32.54
2022-07-27T07:54:33.323Z,32.62
2022-07-27T07:57:00.478Z,32.93
2022-07-27T07:59:27.399Z,33.26
2022-07-27T08:01:54.479Z,31.97
2022-07-27T08:04:21.487Z,31.20
2022-07-27T08:06:48.378Z,32.83
2022-07-27T08:09:17.137Z,33.71
2022-07-27T08:11:44.933Z,34.80
2022-07-27T08:14:11.965Z,35.53
2022-07-27T08:16:39.160Z,38.18
2022-07-27T08:19:06.330Z,38.90
2022-07-27T08:21:36.503Z,41.47
2022-07-27T08:24:03.880Z,42.05
2022-07-27T08:26:30.794Z,43.92
2022-07-27T08:28:59.334Z,42.84
2022-07-27T08:31:50.921Z,40.35
2022-07-27T08:34:13.366Z,40.64
2022-07-27T08:36:40.360Z,42.11
2022-07-27T08:39:08.771Z,39.65
2022-07-27T08:41:42.261Z,42.07
2022-07-27T08:44:13.070Z,40.95
2022-07-27T08:46:40.852Z,40.29
2022-07-27T08:49:08.849Z,36.88
2022-07-27T08:51:36.093Z,37.73
2022-07-27T08:54:03.214Z,37.33
2022-07-27T08:56:30.209Z,37.74
2022-07-27T08:58:57.733Z,37.68
2022-07-27T09:01:24.721Z,37.97
2022-07-27T09:03:51.912Z,35.98
2022-07-27T09:06:53.055Z,35.25
2022-07-27T09:09:22.284Z,33.61
2022-07-27T09:12:09.889Z,33.05
2022-07-27T09:14:38.608Z,32.99
2022-07-27T09:20:17.865Z,33.03
2022-07-27T09:22:54.964Z,33.79
2022-07-27T09:25:38.720Z,34.45
2022-07-27T09:28:09.524Z,35.67
2022-07-27T09:30:42.704Z,33.29
2022-07-27T09:33:09.849Z,32.13
2022-07-27T09:35:36.852Z,32.51
2022-07-27T09:38:18.780Z,31.42
2022-07-27T09:40:46.825Z,32.31
2022-07-27T09:46:07.653Z,35.85
2022-07-27T09:48:35.781Z,34.28
2022-07-27T09:51:37.439Z,36.20
2022-07-27T09:53:54.507Z,38.88
2022-07-27T09:56:29.679Z,35.96
2022-07-27T09:58:59.411Z,36.02
2022-07-27T10:01:35.212Z,37.24
2022-07-27T10:04:07.321Z,37.50
2022-07-27T10:06:53.480Z,38.05
2022-07-27T10:09:21.455Z,38.39
2022-07-27T10:11:49.580Z,37.58
2022-07-27T10:14:16.715Z,36.62
2022-07-27T10:16:48.474Z,37.32
2022-07-27T10:19:45.081Z,35.70
2022-07-27T10:22:12.084Z,36.50
2022-07-27T10:24:39.225Z,36.47
2022-07-27T10:27:20.312Z,37.42
2022-07-27T10:29:49.669Z,36.25
2022-07-27T10:32:33.263Z,38.28
2022-07-27T10:35:01.647Z,38.28
2022-07-27T10:37:31.414Z,38.67
2022-07-27T10:40:39.412Z,38.38
2022-07-27T10:43:09.436Z,37.14
2022-07-27T10:46:00.207Z,38.41
2022-07-27T10:48:48.283Z,41.27
2022-07-27T10:51:17.145Z,43.54
2022-07-27T10:56:47.491Z,44.06
2022-07-27T10:59:14.642Z,43.01
2022-07-27T11:01:58.501Z,42.68
2022-07-27T11:04:26.341Z,43.13
2022-07-27T11:07:23.890Z,42.30
2022-07-27T11:10:03.582Z,40.18
2022-07-27T11:12:31.531Z,37.90
2022-07-27T11:15:01.037Z,38.43
2022-07-27T11:17:54.191Z,40.99
2022-07-27T11:20:22.783Z,40.06
2022-07-27T11:25:36.669Z,42.55
2022-07-27T11:28:09.973Z,42.70
2022-07-27T11:30:37.363Z,44.41
2022-07-27T11:33:05.467Z,51.26
2022-07-27T11:35:32.549Z,55.45
2022-07-27T11:38:05.448Z,59.92
2022-07-27T11:40:58.092Z,59.82
2022-07-27T11:43:45.409Z,62.90
2022-07-27T11:46:26.651Z,65.97
2022-07-27T11:49:13.352Z,67.14
2022-07-27T11:51:43.484Z,67.60
2022-07-27T11:54:25.167Z,68.85
2022-07-27T11:57:10.069Z,69.50
2022-07-27T11:59:39.080Z,69.04
2022-07-27T12:02:08.866Z,72.38
2022-07-27T12:04:38.867Z,70.91
2022-07-27T12:07:11.217Z,70.55
2022-07-27T12:09:45.438Z,69.98
2022-07-27T12:12:15.818Z,70.96
2022-07-27T12:14:46.179Z,70.59
2022-07-27T12:17:15.623Z,72.00
2022-07-27T12:19:43.313Z,71.71
2022-07-27T12:22:10.435Z,72.25
2022-07-27T12:24:39.988Z,71.02
2022-07-27T12:27:15.566Z,70.10
2022-07-27T12:30:16.739Z,71.22
2022-07-27T12:32:46.013Z,70.46
2022-07-27T12:35:44.102Z,73.15
2022-07-27T12:38:13.762Z,72.55
2022-07-27T12:40:46.678Z,71.69
2022-07-27T12:43:18.004Z,71.10
2022-07-27T12:45:46.991Z,71.10
2022-07-27T12:48:16.601Z,69.74
2022-07-27T12:50:46.733Z,71.14
2022-07-27T12:53:15.965Z,72.91
2022-07-27T12:55:44.134Z,72.23
2022-07-27T12:58:14.362Z,71.77
2022-07-27T13:00:41.958Z,70.29
2022-07-27T13:03:09.328Z,70.02
2022-07-27T13:05:36.765Z,70.15
2022-07-27T13:08:04.902Z,69.69
2022-07-27T13:10:32.367Z,70.04
2022-07-27T13:12:59.441Z,69.77
2022-07-27T13:15:26.674Z,69.99
2022-07-27T13:17:53.601Z,70.41
2022-07-27T13:20:20.919Z,69.96
2022-07-27T13:22:47.973Z,70.98
2022-07-27T13:25:17.616Z,69.96
2022-07-27T13:27:46.799Z,69.51
2022-07-27T13:30:16.041Z,70.58
2022-07-27T13:32:43.718Z,70.87
2022-07-27T13:35:12.754Z,70.48
2022-07-27T13:37:40.173Z,69.05
2022-07-27T13:40:08.924Z,70.19
2022-07-27T13:42:36.042Z,69.56
2022-07-27T13:45:09.865Z,70.04
2022-07-27T13:47:39.474Z,71.72
2022-07-27T13:50:16.712Z,71.84
2022-07-27T13:52:44.831Z,71.97
2022-07-27T13:55:14.495Z,72.16
2022-07-27T13:57:41.572Z,72.69
2022-07-27T14:00:09.084Z,73.90
2022-07-27T14:02:36.011Z,73.64
2022-07-27T14:05:04.310Z,73.83
2022-07-27T14:07:33.397Z,73.99
2022-07-27T14:10:19.052Z,73.07
2022-07-27T14:12:45.987Z,72.99
2022-07-27T14:15:13.687Z,73.31
2022-07-27T14:17:40.780Z,73.37
2022-07-27T14:20:08.769Z,73.35
2022-07-27T14:22:35.866Z,73.20
2022-07-27T14:25:02.962Z,73.51
2022-07-27T14:27:33.707Z,74.14
2022-07-27T14:30:09.747Z,74.38
2022-07-27T14:32:36.726Z,74.14
2022-07-27T14:35:05.163Z,73.87
2022-07-27T14:37:34.336Z,73.78
2022-07-27T14:40:02.142Z,73.40
2022-07-27T14:42:29.211Z,72.72
2022-07-27T14:44:56.676Z,73.26
2022-07-27T14:47:24.185Z,73.89
2022-07-27T14:49:51.367Z,74.39
2022-07-27T14:52:18.837Z,74.48
2022-07-27T14:54:47.454Z,74.21
2022-07-27T14:57:15.673Z,74.02
2022-07-27T15:15:00.496Z,76.24
2022-07-27T15:17:27.574Z,76.23
2022-07-27T15:19:54.532Z,76.06
2022-07-27T15:22:21.417Z,75.90
2022-07-27T15:24:52.922Z,75.88
2022-07-27T15:27:20.794Z,75.96
2022-07-27T15:29:47.762Z,76.56
2022-07-27T15:32:14.921Z,76.63
2022-07-27T15:34:43.714Z,76.68
2022-07-27T15:37:10.660Z,76.38
2022-07-27T15:39:39.479Z,76.99
2022-07-27T15:42:08.419Z,76.44
2022-07-27T15:44:37.162Z,76.93
2022-07-27T15:47:04.644Z,77.71
2022-07-27T15:49:31.625Z,77.26
2022-07-27T15:51:58.982Z,77.95
2022-07-27T15:54:27.992Z,77.67
2022-07-27T15:56:57.131Z,77.03
2022-07-27T15:59:24.042Z,77.13
2022-07-27T16:01:51.037Z,77.33
2022-07-27T16:04:20.677Z,77.04
2022-07-27T16:06:47.639Z,75.95
2022-07-27T16:09:14.706Z,76.36
2022-07-27T16:11:42.051Z,76.16
2022-07-27T16:14:09.065Z,77.22
2022-07-27T16:16:35.962Z,76.95
2022-07-27T16:19:13.720Z,77.75
2022-07-27T16:21:54.774Z,77.26
2022-07-27T16:24:24.209Z,76.29
2022-07-27T16:26:51.131Z,76.39
2022-07-27T16:29:18.371Z,76.65
2022-07-27T16:31:45.425Z,77.43
2022-07-27T16:34:12.439Z,78.18
2022-07-27T16:36:39.530Z,78.38
2022-07-27T16:39:06.552Z,77.94
2022-07-27T16:41:33.593Z,78.06
2022-07-27T16:44:00.685Z,78.06
2022-07-27T16:46:27.749Z,77.98
2022-07-27T16:48:54.824Z,77.96
2022-07-27T16:51:21.876Z,77.52
2022-07-27T16:53:48.784Z,78.40
2022-07-27T16:56:16.425Z,78.29
2022-07-27T16:58:44.588Z,79.16
2022-07-27T17:01:21.740Z,79.18
2022-07-27T17:03:54.078Z,79.51
2022-07-27T17:06:21.131Z,79.75
2022-07-27T17:08:48.649Z,79.98
2022-07-27T17:11:20.869Z,79.39
2022-07-27T17:13:49.776Z,79.56
2022-07-27T17:16:17.668Z,80.07
2022-07-27T17:18:44.795Z,80.08
2022-07-27T17:21:14.801Z,79.88
2022-07-27T17:23:42.536Z,80.07
2022-07-27T17:26:12.365Z,79.85
2022-07-27T17:28:40.285Z,80.00
2022-07-27T17:31:10.562Z,80.34
2022-07-27T17:33:38.320Z,80.37
2022-07-27T17:36:08.525Z,80.65
2022-07-27T17:38:40.894Z,80.72
2022-07-27T17:41:07.842Z,80.56
2022-07-27T17:43:38.821Z,80.36
2022-07-27T17:46:06.599Z,80.32
2022-07-27T17:48:35.441Z,80.31
2022-07-27T17:51:02.929Z,80.71
2022-07-27T17:53:30.086Z,81.09
2022-07-27T17:55:57.031Z,80.58
2022-07-27T17:58:29.446Z,81.21
2022-07-27T18:00:56.982Z,81.33
2022-07-27T18:03:23.951Z,81.23
2022-07-27T18:05:50.922Z,81.49
2022-07-27T18:08:17.998Z,81.60
2022-07-27T18:10:44.819Z,81.45
2022-07-27T18:13:11.749Z,81.81
2022-07-27T18:15:47.567Z,82.07
2022-07-27T18:18:15.545Z,82.61
2022-07-27T18:20:43.451Z,82.65
2022-07-27T18:23:10.687Z,82.62
2022-07-27T18:25:37.679Z,82.95
2022-07-27T18:28:05.122Z,83.35
2022-07-27T18:30:32.468Z,83.41
2022-07-27T18:32:59.438Z,83.73
2022-07-27T18:35:26.364Z,84.14
2022-07-27T18:37:53.311Z,84.56
2022-07-27T18:40:21.827Z,84.38
2022-07-27T18:42:48.814Z,84.36
2022-07-27T18:45:15.806Z,84.73
2022-07-27T18:47:49.277Z,84.55
2022-07-27T18:50:16.840Z,85.34
2022-07-27T18:52:43.775Z,85.23
2022-07-27T18:55:10.834Z,85.22
2022-07-27T18:57:38.138Z,85.93
2022-07-27T19:00:06.853Z,85.83
2022-07-27T19:02:38.931Z,85.63
2022-07-27T19:05:07.453Z,85.66
2022-07-27T19:07:37.359Z,85.82
2022-07-27T19:10:07.416Z,85.44
2022-07-27T19:12:34.423Z,85.79
2022-07-27T19:15:01.523Z,86.14
2022-07-27T19:17:28.483Z,86.65
2022-07-27T19:19:55.417Z,86.56
2022-07-27T19:22:22.315Z,86.53
2022-07-27T19:24:54.633Z,85.94
2022-07-27T19:27:22.278Z,86.32
2022-07-27T19:29:49.301Z,86.30
2022-07-27T19:32:16.965Z,86.40
2022-07-27T19:34:43.982Z,86.28
2022-07-27T19:37:12.533Z,86.62
2022-07-27T19:40:02.117Z,86.75
2022-07-27T19:42:27.230Z,86.75
2022-07-27T19:44:55.354Z,87.11
2022-07-27T19:47:22.304Z,87.34
2022-07-27T19:49:49.299Z,87.35
2022-07-27T19:52:16.290Z,88.28
2022-07-27T19:54:43.580Z,88.37
2022-07-27T19:57:11.717Z,88.45
2022-07-27T19:59:55.734Z,88.35
2022-07-27T20:02:25.167Z,88.48
2022-07-27T20:04:52.137Z,88.05
2022-07-27T20:07:19.094Z,88.39
2022-07-27T20:09:45.962Z,88.17
2022-07-27T20:12:12.974Z,88.57
2022-07-27T20:14:39.999Z,88.41
2022-07-27T20:17:07.093Z,87.93
2022-07-27T20:19:34.237Z,87.37
2022-07-27T20:22:01.608Z,87.86
2022-07-27T20:24:29.503Z,87.50
2022-07-27T20:26:57.293Z,87.84
2022-07-27T20:29:24.209Z,87.87
2022-07-27T20:31:54.588Z,87.58
2022-07-27T20:34:23.584Z,86.93
2022-07-27T20:36:50.711Z,87.13
2022-07-27T20:39:18.550Z,87.00
2022-07-27T20:41:46.056Z,86.44
2022-07-27T20:44:13.129Z,86.79
2022-07-27T20:46:40.083Z,86.88
2022-07-27T20:49:07.182Z,86.84
2022-07-27T20:51:34.309Z,87.15
2022-07-27T20:54:01.316Z,87.03
2022-07-27T20:56:28.214Z,86.74
2022-07-27T20:58:55.153Z,87.27
2022-07-27T21:01:22.069Z,87.59
2022-07-27T21:03:49.273Z,87.40
2022-07-27T21:06:16.412Z,87.91
2022-07-27T21:08:46.667Z,87.65
2022-07-27T21:11:14.412Z,87.62
2022-07-27T21:13:41.550Z,87.94
2022-07-27T21:16:08.775Z,88.13
2022-07-27T21:18:35.847Z,88.55
2022-07-27T21:21:02.899Z,88.36
2022-07-27T21:23:48.491Z,88.33
2022-07-27T21:26:18.166Z,89.00
2022-07-27T21:28:46.014Z,88.48
2022-07-27T21:31:13.283Z,88.49
2022-07-27T21:33:40.307Z,88.31
2022-07-27T21:36:07.758Z,87.94
2022-07-27T21:38:35.059Z,88.19
2022-07-27T21:41:01.953Z,88.47
2022-07-27T21:43:29.000Z,88.54
2022-07-27T21:45:55.963Z,89.03
2022-07-27T21:48:23.023Z,88.26
2022-07-27T21:50:50.120Z,88.43
2022-07-27T21:53:17.302Z,88.21
2022-07-27T21:55:44.222Z,89.01
2022-07-27T21:58:12.445Z,88.98
2022-07-27T22:00:39.901Z,89.22
2022-07-27T22:03:07.874Z,89.15
2022-07-27T22:05:35.724Z,89.19
2022-07-27T22:08:03.783Z,88.88
2022-07-27T22:10:32.003Z,88.22
2022-07-27T22:12:59.233Z,88.33
2022-07-27T22:15:27.117Z,88.66
2022-07-27T22:17:54.290Z,89.07
2022-07-27T22:20:22.281Z,89.19
2022-07-27T22:22:50.828Z,88.60
2022-07-27T22:25:18.921Z,89.19
2022-07-27T22:27:45.945Z,89.18
2022-07-27T22:30:12.888Z,89.48
2022-07-27T22:32:39.746Z,89.62
2022-07-27T22:35:07.301Z,89.37
2022-07-27T22:37:34.215Z,89.11
2022-07-27T22:40:01.055Z,89.70
2022-07-27T22:42:28.323Z,89.00
2022-07-27T22:44:55.235Z,89.12
2022-07-27T22:47:22.425Z,88.89
2022-07-27T22:49:49.626Z,88.82
2022-07-27T22:52:16.522Z,89.30
2022-07-27T22:54:43.514Z,88.77
2022-07-27T22:57:10.627Z,88.69
2022-07-27T22:59:37.684Z,88.84
2022-07-27T23:02:05.614Z,88.93
2022-07-27T23:04:32.651Z,88.80
2022-07-27T23:06:59.762Z,88.89
2022-07-27T23:09:26.780Z,88.50
2022-07-27T23:11:53.795Z,88.42
2022-07-27T23:14:20.905Z,88.69
2022-07-27T23:16:47.958Z,88.89
2022-07-27T23:19:14.949Z,89.21
2022-07-27T23:21:42.414Z,89.88
2022-07-27T23:24:10.941Z,89.66
2022-07-27T23:26:38.416Z,89.99
2022-07-27T23:29:05.370Z,89.68
2022-07-27T23:31:32.387Z,90.14
2022-07-27T23:33:59.555Z,90.56
2022-07-27T23:36:26.816Z,91.06
2022-07-27T23:38:53.876Z,91.02
2022-07-27T23:41:20.857Z,91.49
2022-07-27T23:43:47.777Z,91.61
2022-07-27T23:46:14.772Z,91.97
2022-07-27T23:48:41.911Z,92.15
2022-07-27T23:51:09.300Z,92.25
2022-07-27T23:53:36.902Z,92.16
2022-07-27T23:56:03.854Z,92.46
2022-07-27T23:58:30.843Z,92.25
